Terminal Aerodrome Forecast
Issued by NWS

Home | Current Version | Previous Version | Text Only | Print | Product List | Glossary On
Versions: 1 2 3 4 5 6 7 8 9 10 11 12 13 14 15
000
FTUS42 KMLB 291720
TAFLEE
TAF
KLEE 291720Z 2918/3018 13014G22KT P6SM FEW050 BKN250
     FM300100 12010KT P6SM BKN250
     FM301500 14012G19KT P6SM FEW025 SCT040 BKN080=

USA.gov is the U.S. government's official web portal to all federal, state and local government web resources and services.